Terminal Aerodrome Forecast
Issued by NWS

Home | Current Version | Previous Version | Text Only | Print | Product List | Glossary On
Versions: 1 2 3 4 5 6 7 8 9 10 11 12 13 14 15 16 17 18 19 20
000
FTUS42 KGSP 040520
TAFGMU
TAF
KGMU 040520Z 0406/0506 34004KT P6SM FEW250
     FM040900 31003KT P6SM SCT045
     FM041600 29007KT P6SM SCT200
     FM041900 26011KT P6SM SCT040
     FM050000 24006KT P6SM BKN070
     FM050400 26006KT P6SM SCT100=

USA.gov is the U.S. government's official web portal to all federal, state and local government web resources and services.